Time;durP1;ratioP1;P1;durP2;ratioP2;P2;SDS_P1;SDS_P2;PMS_P1;PMS_P2;Temp;Humidity;BMP_temperature;BMP_pressure;BME280_temperature;BME280_humidity;BME280_pressure;Samples;Min_cycle;Max_cycle;Signal;HPM_P1;HPM_P2
2023/12/07 00:01:54;;;;;;;10.65;5.03;;;;;;;0.60;100.00;97573.84;5044841;28;20167;-60
2023/12/07 00:04:20;;;;;;;9.65;4.88;;;;;;;0.58;100.00;97571.38;5034972;28;20100;-61
2023/12/07 00:06:47;;;;;;;10.20;5.18;;;;;;;0.50;100.00;97574.94;5029970;28;20086;-60
2023/12/07 00:09:13;;;;;;;9.27;5.30;;;;;;;0.40;100.00;97578.88;5046424;28;20520;-59
2023/12/07 00:11:40;;;;;;;10.57;5.03;;;;;;;0.37;100.00;97572.91;5045542;28;20041;-61
2023/12/07 00:14:07;;;;;;;8.75;5.05;;;;;;;0.23;100.00;97574.53;5048513;28;20056;-60
2023/12/07 00:16:33;;;;;;;8.82;4.95;;;;;;;0.33;100.00;97579.59;5033533;28;20095;-61
2023/12/07 00:19:00;;;;;;;8.43;4.82;;;;;;;0.54;100.00;97580.72;5041711;28;20044;-61
2023/12/07 00:21:26;;;;;;;7.65;4.65;;;;;;;0.64;100.00;97589.31;5045597;28;20124;-61
2023/12/07 00:23:53;;;;;;;8.35;4.78;;;;;;;0.49;100.00;97588.44;5058620;28;20045;-60
2023/12/07 00:26:19;;;;;;;9.73;4.93;;;;;;;0.33;100.00;97589.44;5053518;28;20412;-60
2023/12/07 00:28:46;;;;;;;10.45;5.10;;;;;;;0.28;100.00;97589.13;5036758;28;20042;-60
2023/12/07 00:31:12;;;;;;;10.48;5.72;;;;;;;0.30;100.00;97587.97;5028786;28;20034;-60
2023/12/07 00:33:39;;;;;;;10.68;5.22;;;;;;;0.29;100.00;97588.16;5039099;28;20047;-58
2023/12/07 00:36:06;;;;;;;11.90;5.90;;;;;;;0.22;100.00;97593.38;5038677;28;20049;-60
2023/12/07 00:38:32;;;;;;;11.10;5.47;;;;;;;0.23;100.00;97590.50;5044086;28;20049;-60
2023/12/07 00:40:59;;;;;;;10.20;5.20;;;;;;;0.42;100.00;97596.34;5038992;28;20149;-61
2023/12/07 00:43:26;;;;;;;10.23;5.38;;;;;;;0.50;100.00;97593.59;5042578;28;20045;-61
2023/12/07 00:45:52;;;;;;;9.10;5.15;;;;;;;0.53;100.00;97597.75;5052367;28;20050;-59
2023/12/07 00:48:19;;;;;;;9.10;5.05;;;;;;;0.50;100.00;97593.59;5037922;28;20555;-60
2023/12/07 00:50:46;;;;;;;9.35;5.38;;;;;;;0.50;100.00;97590.09;5053693;28;20036;-61
2023/12/07 00:53:13;;;;;;;11.43;6.10;;;;;;;0.36;100.00;97586.41;5034151;28;20045;-61
2023/12/07 00:55:40;;;;;;;12.35;5.95;;;;;;;0.45;100.00;97593.31;5033459;28;20500;-59
2023/12/07 00:58:06;;;;;;;9.93;5.53;;;;;;;0.37;100.00;97598.72;5046923;28;20048;-58
2023/12/07 01:00:33;;;;;;;10.38;6.10;;;;;;;0.31;100.00;97597.63;5046287;28;20044;-58
2023/12/07 01:03:00;;;;;;;10.75;5.35;;;;;;;0.25;100.00;97596.50;5042612;28;20564;-60
2023/12/07 01:05:26;;;;;;;13.10;6.43;;;;;;;0.27;100.00;97595.47;5044351;28;20051;-56
2023/12/07 01:07:53;;;;;;;10.52;5.55;;;;;;;0.21;100.00;97599.69;5034062;28;20075;-60
2023/12/07 01:10:19;;;;;;;10.20;5.40;;;;;;;0.28;100.00;97597.13;5044315;28;20052;-61
2023/12/07 01:12:46;;;;;;;9.27;5.10;;;;;;;0.40;100.00;97608.19;5037770;28;20675;-60
2023/12/07 01:15:13;;;;;;;8.98;4.97;;;;;;;0.58;100.00;97608.66;5052701;28;20068;-56
2023/12/07 01:17:39;;;;;;;9.27;4.85;;;;;;;0.57;100.00;97609.69;5041906;28;20043;-57
2023/12/07 01:20:16;;;;;;;8.65;4.85;;;;;;;0.55;100.00;97609.03;5051657;28;20049;-61
2023/12/07 01:22:45;;;;;;;10.00;5.78;;;;;;;0.60;100.00;97608.50;5050585;28;20627;-58
2023/12/07 01:25:16;;;;;;;8.88;5.18;;;;;;;0.70;100.00;97616.22;5045123;28;20045;-61
2023/12/07 01:27:44;;;;;;;7.88;4.57;;;;;;;0.62;100.00;97620.63;5050849;28;20041;-56
2023/12/07 01:30:10;;;;;;;9.15;4.68;;;;;;;0.56;100.00;97617.88;5056629;28;20029;-62
2023/12/07 01:32:37;;;;;;;8.88;4.55;;;;;;;0.67;100.00;97619.25;5051812;28;20511;-60
2023/12/07 01:35:04;;;;;;;8.88;5.15;;;;;;;0.60;100.00;97614.66;5052707;28;20041;-60
2023/12/07 01:37:30;;;;;;;8.45;4.32;;;;;;;0.60;100.00;97616.50;5059634;28;20067;-59
2023/12/07 01:39:57;;;;;;;8.68;4.10;;;;;;;0.48;100.00;97616.13;5057320;28;20068;-60
2023/12/07 01:42:24;;;;;;;9.95;5.15;;;;;;;0.40;100.00;97626.84;5052998;28;20094;-61
2023/12/07 01:44:50;;;;;;;9.73;5.28;;;;;;;0.40;100.00;97624.19;5051084;28;20044;-61
2023/12/07 01:47:17;;;;;;;10.55;4.90;;;;;;;0.17;100.00;97620.53;5046440;28;20220;-60
2023/12/07 01:49:45;;;;;;;8.35;5.05;;;;;;;0.11;100.00;97621.25;5053673;28;20574;-61
2023/12/07 01:52:12;;;;;;;9.73;5.00;;;;;;;-0.04;100.00;97621.19;5050042;28;20106;-61
2023/12/07 01:54:39;;;;;;;8.18;5.20;;;;;;;-0.17;100.00;97619.97;5057433;28;20074;-60
2023/12/07 01:57:06;;;;;;;8.18;4.45;;;;;;;-0.21;100.00;97626.63;5045641;28;20112;-60
2023/12/07 01:59:33;;;;;;;12.20;5.65;;;;;;;-0.22;100.00;97632.94;5061610;28;20119;-61
2023/12/07 02:02:00;;;;;;;12.48;5.55;;;;;;;-0.30;100.00;97627.66;5051962;28;20041;-60
2023/12/07 02:04:27;;;;;;;9.38;4.70;;;;;;;-0.38;100.00;97630.41;5050031;28;20048;-61
2023/12/07 02:06:56;;;;;;;9.02;4.72;;;;;;;-0.55;100.00;97627.84;5053177;28;20049;-60
2023/12/07 02:09:23;;;;;;;9.30;5.63;;;;;;;-0.60;100.00;97627.50;5050775;28;20060;-60
2023/12/07 02:11:50;;;;;;;9.48;4.93;;;;;;;-0.60;100.00;97627.50;5059956;28;20117;-60
2023/12/07 02:14:18;;;;;;;9.95;6.47;;;;;;;-0.66;100.00;97629.84;5037250;28;20045;-60
2023/12/07 02:16:56;;;;;;;10.70;5.65;;;;;;;-0.55;100.00;97625.97;5041300;28;20064;-60
2023/12/07 02:19:49;;;;;;;10.60;5.93;;;;;;;-0.40;100.00;97620.75;5046141;28;20040;-60
2023/12/07 02:22:21;;;;;;;9.80;5.65;;;;;;;-0.30;100.00;97619.69;5043742;28;20049;-60
2023/12/07 02:25:08;;;;;;;9.60;5.35;;;;;;;-0.15;100.00;97617.09;5045522;28;20036;-60
2023/12/07 02:27:41;;;;;;;10.98;5.78;;;;;;;-0.06;100.00;97612.56;5039607;28;20460;-61
2023/12/07 02:30:10;;;;;;;8.48;5.20;;;;;;;-0.08;100.00;97620.72;5039626;28;20041;-57
2023/12/07 02:32:38;;;;;;;9.10;5.32;;;;;;;-0.30;100.00;97619.69;5045408;28;20043;-61
2023/12/07 02:35:07;;;;;;;11.75;5.65;;;;;;;-0.55;100.00;97622.50;5052349;28;20064;-60
2023/12/07 02:37:40;;;;;;;9.05;5.53;;;;;;;-0.68;100.00;97623.91;5042707;28;20648;-57
2023/12/07 02:40:12;;;;;;;11.20;6.53;;;;;;;-0.71;100.00;97629.56;5054918;28;20104;-61
2023/12/07 02:42:40;;;;;;;10.32;6.35;;;;;;;-0.53;100.00;97620.50;5043746;28;20115;-58
2023/12/07 02:45:08;;;;;;;10.95;6.18;;;;;;;-0.46;100.00;97625.94;5050940;28;20132;-61
2023/12/07 02:47:35;;;;;;;12.20;6.10;;;;;;;-0.44;100.00;97621.28;5046026;28;20041;-61
2023/12/07 02:50:04;;;;;;;11.65;6.57;;;;;;;-0.50;100.00;97621.97;5058576;28;20472;-61
2023/12/07 02:52:30;;;;;;;13.15;6.63;;;;;;;-0.51;100.00;97625.63;5049408;28;20037;-60
2023/12/07 02:54:57;;;;;;;12.73;6.47;;;;;;;-0.60;100.00;97619.53;5058272;28;20048;-60
2023/12/07 02:57:23;;;;;;;11.38;6.70;;;;;;;-0.68;100.00;97618.56;5059974;28;20033;-61
2023/12/07 02:59:50;;;;;;;10.75;6.35;;;;;;;-0.69;100.00;97624.91;5061343;28;20079;-58
2023/12/07 03:02:17;;;;;;;10.90;5.60;;;;;;;-0.67;100.00;97628.22;5049829;28;21219;-58
2023/12/07 03:04:43;;;;;;;9.15;5.53;;;;;;;-0.64;100.00;97634.16;5053955;28;20721;-60
2023/12/07 03:07:10;;;;;;;11.43;6.60;;;;;;;-0.67;100.00;97632.69;5052976;28;20067;-60
2023/12/07 03:09:36;;;;;;;11.68;6.30;;;;;;;-0.74;100.00;97637.88;5060730;28;20041;-59
2023/12/07 03:12:03;;;;;;;14.02;6.80;;;;;;;-0.76;100.00;97634.56;5046458;28;20041;-60
2023/12/07 03:14:30;;;;;;;12.95;6.70;;;;;;;-0.76;100.00;97631.91;5055254;28;20047;-60
2023/12/07 03:16:56;;;;;;;10.85;5.93;;;;;;;-0.78;100.00;97633.91;5063993;28;20127;-58
2023/12/07 03:19:23;;;;;;;12.68;6.13;;;;;;;-0.74;100.00;97640.53;5043747;28;20655;-59
2023/12/07 03:21:49;;;;;;;11.27;6.22;;;;;;;-0.62;100.00;97638.34;5055550;28;20041;-54
2023/12/07 03:24:16;;;;;;;10.18;5.88;;;;;;;-0.61;100.00;97632.00;5050979;28;20528;-57
2023/12/07 03:26:43;;;;;;;11.65;6.45;;;;;;;-0.67;100.00;97627.38;5061359;28;20040;-58
2023/12/07 03:29:10;;;;;;;8.90;5.32;;;;;;;-0.64;100.00;97632.34;5041285;28;20124;-59
2023/12/07 03:31:36;;;;;;;9.90;5.28;;;;;;;-0.56;100.00;97628.81;5047986;28;20047;-55
2023/12/07 03:34:05;;;;;;;8.88;5.10;;;;;;;-0.57;100.00;97632.47;5052415;28;20119;-59
2023/12/07 03:36:32;;;;;;;9.20;5.40;;;;;;;-0.54;100.00;97638.31;5040136;28;20037;-58
2023/12/07 03:39:00;;;;;;;11.20;5.55;;;;;;;-0.58;100.00;97636.16;5045729;28;20067;-53
2023/12/07 03:41:27;;;;;;;11.32;6.50;;;;;;;-0.88;100.00;97641.25;5055747;28;20036;-58
2023/12/07 03:43:53;;;;;;;9.93;5.82;;;;;;;-1.11;100.00;97644.66;5050994;28;20556;-59
2023/12/07 03:46:20;;;;;;;10.70;6.30;;;;;;;-1.19;100.00;97640.19;5044029;28;20045;-54
2023/12/07 03:48:46;;;;;;;9.30;5.13;;;;;;;-1.18;100.00;97639.19;5042428;28;20037;-55
2023/12/07 03:51:16;;;;;;;9.45;5.32;;;;;;;-1.27;100.00;97646.34;5044323;28;20048;-59
2023/12/07 03:53:43;;;;;;;9.60;5.47;;;;;;;-1.24;100.00;97653.16;5033506;28;20045;-57
2023/12/07 03:56:10;;;;;;;14.60;6.68;;;;;;;-0.86;100.00;97663.16;5044469;28;20072;-59
2023/12/07 03:58:36;;;;;;;12.10;6.30;;;;;;;-0.96;100.00;97663.41;5038328;28;20500;-57
2023/12/07 04:01:03;;;;;;;11.30;6.07;;;;;;;-1.02;100.00;97648.09;5039896;28;20095;-59
2023/12/07 04:03:30;;;;;;;11.10;6.63;;;;;;;-1.15;100.00;97651.31;5048387;28;20049;-58
2023/12/07 04:05:56;;;;;;;10.55;6.65;;;;;;;-1.13;100.00;97659.94;5044203;28;20435;-57
2023/12/07 04:08:23;;;;;;;8.80;5.40;;;;;;;-1.20;100.00;97652.66;5031243;28;20065;-58
2023/12/07 04:10:50;;;;;;;10.65;5.13;;;;;;;-1.24;100.00;97653.16;5041113;28;20042;-57
2023/12/07 04:13:16;;;;;;;11.15;5.85;;;;;;;-1.22;100.00;97659.94;5039098;28;20037;-61
2023/12/07 04:15:43;;;;;;;8.82;5.32;;;;;;;-1.25;100.00;97660.28;5028933;28;20051;-61
2023/12/07 04:18:09;;;;;;;10.18;6.10;;;;;;;-1.36;100.00;97658.81;5036193;28;20045;-59
2023/12/07 04:20:36;;;;;;;10.52;5.35;;;;;;;-1.50;100.00;97654.19;5025580;28;20042;-59
2023/12/07 04:23:02;;;;;;;10.98;5.45;;;;;;;-1.49;100.00;97671.78;5032830;28;20049;-60
2023/12/07 04:25:29;;;;;;;9.85;5.40;;;;;;;-1.37;100.00;97659.00;5038150;28;20136;-61
2023/12/07 04:27:55;;;;;;;11.38;5.95;;;;;;;-1.49;100.00;97664.66;5046407;28;20198;-59
2023/12/07 04:30:22;;;;;;;8.75;5.10;;;;;;;-1.53;100.00;97662.47;5025857;28;20080;-60
2023/12/07 04:32:49;;;;;;;9.73;5.38;;;;;;;-1.49;100.00;97669.13;5037375;28;20040;-61
2023/12/07 04:35:15;;;;;;;11.25;5.78;;;;;;;-1.67;100.00;97670.13;5033458;28;20091;-61
2023/12/07 04:37:42;;;;;;;9.38;5.30;;;;;;;-1.69;100.00;97669.47;5035990;28;20191;-60
2023/12/07 04:40:10;;;;;;;18.98;9.43;;;;;;;-1.51;100.00;97671.13;5049017;28;20103;-61
2023/12/07 04:42:37;;;;;;;10.50;5.80;;;;;;;-1.44;100.00;97667.63;5032223;28;20605;-60
2023/12/07 04:45:03;;;;;;;10.90;6.00;;;;;;;-1.76;100.00;97669.31;5041658;28;20558;-60
2023/12/07 04:47:32;;;;;;;10.20;5.40;;;;;;;-1.90;100.00;97673.44;5044740;28;20129;-56
2023/12/07 04:49:59;;;;;;;12.27;6.30;;;;;;;-2.02;100.00;97662.31;5039567;28;20106;-59
2023/12/07 04:52:26;;;;;;;9.98;5.68;;;;;;;-1.89;100.00;97676.91;5041005;28;20056;-60
2023/12/07 04:54:52;;;;;;;10.88;5.60;;;;;;;-1.84;100.00;97669.31;5046303;28;20068;-60
2023/12/07 04:57:19;;;;;;;11.10;6.75;;;;;;;-1.83;100.00;97669.13;5031862;28;20080;-61
2023/12/07 04:59:46;;;;;;;10.27;6.32;;;;;;;-1.93;100.00;97670.28;5037492;28;20040;-61
2023/12/07 05:02:14;;;;;;;10.70;5.80;;;;;;;-2.00;100.00;97675.41;5038818;28;20488;-60
2023/12/07 05:04:41;;;;;;;14.57;6.28;;;;;;;-2.05;100.00;97675.06;5030854;28;20103;-60
2023/12/07 05:07:08;;;;;;;14.95;7.20;;;;;;;-1.72;100.00;97691.88;5039647;28;20104;-60
2023/12/07 05:09:34;;;;;;;11.63;7.15;;;;;;;-1.74;100.00;97680.59;5048388;28;20044;-61
2023/12/07 05:12:01;;;;;;;12.18;7.78;;;;;;;-1.87;100.00;97680.25;5039713;28;20049;-57
2023/12/07 05:14:27;;;;;;;11.05;6.78;;;;;;;-1.93;100.00;97675.56;5029133;28;20135;-60
2023/12/07 05:16:55;;;;;;;12.77;7.50;;;;;;;-1.97;100.00;97678.59;5036647;28;20155;-61
2023/12/07 05:19:23;;;;;;;16.20;7.47;;;;;;;-1.90;100.00;97684.06;5045326;28;20037;-60
2023/12/07 05:21:50;;;;;;;10.55;6.05;;;;;;;-1.91;100.00;97685.06;5040664;28;20518;-61
2023/12/07 05:24:16;;;;;;;12.23;6.30;;;;;;;-1.88;100.00;97679.41;5035858;28;20086;-60
2023/12/07 05:26:46;;;;;;;13.68;7.40;;;;;;;-1.88;100.00;97686.56;5030614;28;20045;-61
2023/12/07 05:29:13;;;;;;;12.95;7.35;;;;;;;-1.86;100.00;97681.91;5042636;28;20037;-61
2023/12/07 05:31:40;;;;;;;13.20;7.53;;;;;;;-1.82;100.00;97677.91;5035823;28;20387;-59
2023/12/07 05:34:07;;;;;;;10.93;6.45;;;;;;;-1.85;100.00;97679.09;5031606;28;20038;-61
2023/12/07 05:36:34;;;;;;;11.60;7.03;;;;;;;-1.76;100.00;97674.63;5048044;28;20102;-59
2023/12/07 05:39:00;;;;;;;11.32;6.70;;;;;;;-1.83;100.00;97670.97;5029389;28;20060;-61
2023/12/07 05:41:27;;;;;;;11.82;7.35;;;;;;;-1.73;100.00;97676.91;5042830;28;20415;-58
2023/12/07 05:43:53;;;;;;;13.32;6.60;;;;;;;-1.81;100.00;97673.44;5047927;28;20033;-60
2023/12/07 05:46:20;;;;;;;13.00;7.57;;;;;;;-1.86;100.00;97677.44;5030106;28;20368;-60
2023/12/07 05:48:47;;;;;;;12.68;6.85;;;;;;;-1.81;100.00;97673.44;5031103;28;20044;-60
2023/12/07 05:51:15;;;;;;;14.65;6.82;;;;;;;-1.87;100.00;97681.09;5044215;28;20103;-61
2023/12/07 05:53:43;;;;;;;11.15;7.55;;;;;;;-1.86;100.00;97676.59;5034102;28;20046;-59
2023/12/07 05:56:11;;;;;;;11.02;6.50;;;;;;;-1.84;100.00;97678.06;5030478;28;20136;-58
2023/12/07 05:58:38;;;;;;;12.82;7.63;;;;;;;-1.84;100.00;97677.28;5033551;28;20408;-58
2023/12/07 06:01:05;;;;;;;10.68;6.65;;;;;;;-1.98;100.00;97668.13;5038881;28;20132;-61
2023/12/07 06:03:32;;;;;;;15.32;7.05;;;;;;;-2.18;100.00;97671.06;5048363;28;20037;-61
2023/12/07 06:05:59;;;;;;;15.70;7.47;;;;;;;-2.15;100.00;97680.53;5043573;28;20096;-61
2023/12/07 06:08:25;;;;;;;16.25;7.82;;;;;;;-2.06;100.00;97676.06;5048646;28;20047;-61
2023/12/07 06:10:52;;;;;;;16.02;7.45;;;;;;;-2.19;100.00;97677.38;5042035;28;20048;-61
2023/12/07 06:13:19;;;;;;;12.77;7.78;;;;;;;-2.31;100.00;97676.84;5030631;28;20091;-61
2023/12/07 06:15:45;;;;;;;13.70;7.25;;;;;;;-2.40;100.00;97665.38;5030972;28;20065;-61
2023/12/07 06:18:13;;;;;;;12.77;7.35;;;;;;;-2.30;100.00;97669.72;5030190;28;20048;-61
2023/12/07 06:20:41;;;;;;;15.38;6.80;;;;;;;-2.42;100.00;97678.00;5029595;28;20045;-61
2023/12/07 06:23:12;;;;;;;12.90;7.60;;;;;;;-2.76;100.00;97671.72;5044530;28;20047;-58
2023/12/07 06:25:39;;;;;;;11.52;6.63;;;;;;;-2.90;100.00;97673.16;5030253;28;20087;-61
2023/12/07 06:28:06;;;;;;;12.20;6.80;;;;;;;-3.03;100.00;97678.03;5035119;28;20072;-61
2023/12/07 06:30:33;;;;;;;13.93;7.53;;;;;;;-3.17;100.00;97677.63;5038109;28;20561;-60
2023/12/07 06:33:00;;;;;;;13.25;7.47;;;;;;;-3.17;100.00;97684.78;5043456;28;20041;-61
2023/12/07 06:35:27;;;;;;;11.68;6.95;;;;;;;-3.02;100.00;97685.84;5035329;28;20075;-61
2023/12/07 06:37:53;;;;;;;13.90;7.90;;;;;;;-2.76;100.00;97705.38;5041669;28;20052;-60
2023/12/07 06:40:20;;;;;;;14.73;8.15;;;;;;;-2.78;100.00;97691.41;5037632;28;20099;-59
2023/12/07 06:42:48;;;;;;;13.75;8.90;;;;;;;-3.07;100.00;97685.50;5038984;28;20041;-60
2023/12/07 06:45:14;;;;;;;13.90;8.27;;;;;;;-3.19;100.00;97681.44;5036031;28;20037;-58
2023/12/07 06:47:44;;;;;;;12.93;7.18;;;;;;;-3.35;100.00;97675.06;5026928;28;20045;-60
2023/12/07 06:50:10;;;;;;;11.50;7.10;;;;;;;-3.35;100.00;97684.81;5032791;28;20046;-58
2023/12/07 06:52:37;;;;;;;13.50;7.20;;;;;;;-3.32;100.00;97684.53;5041516;28;20559;-57
2023/12/07 06:55:05;;;;;;;14.15;7.63;;;;;;;-3.27;100.00;97684.88;5033361;28;20048;-58
2023/12/07 06:57:33;;;;;;;19.23;8.48;;;;;;;-3.22;100.00;97692.34;5036686;28;20707;-60
2023/12/07 07:00:01;;;;;;;15.35;8.05;;;;;;;-3.44;100.00;97692.69;5033011;28;20053;-59
2023/12/07 07:02:27;;;;;;;20.55;8.38;;;;;;;-3.39;100.00;97689.59;5034139;28;20147;-59
2023/12/07 07:04:54;;;;;;;13.02;7.38;;;;;;;-3.21;100.00;97694.84;5037980;28;20115;-60
2023/12/07 07:07:21;;;;;;;14.18;7.55;;;;;;;-2.98;100.00;97707.56;5031577;28;20056;-60
2023/12/07 07:09:48;;;;;;;14.75;8.00;;;;;;;-2.88;100.00;97699.47;5037384;28;20123;-60
2023/12/07 07:12:14;;;;;;;12.48;7.38;;;;;;;-2.92;100.00;97704.28;5042858;28;20048;-61
2023/12/07 07:14:42;;;;;;;15.27;7.97;;;;;;;-2.88;100.00;97688.88;5035671;28;20041;-60
2023/12/07 07:17:08;;;;;;;12.68;8.05;;;;;;;-2.81;100.00;97689.09;5033644;28;20751;-61
2023/12/07 07:19:34;;;;;;;15.15;8.77;;;;;;;-2.67;100.00;97690.31;5029790;28;20045;-55
2023/12/07 07:22:01;;;;;;;15.70;8.43;;;;;;;-2.62;100.00;97677.41;5036704;28;20041;-61
2023/12/07 07:24:28;;;;;;;13.52;7.65;;;;;;;-2.62;100.00;97675.59;5044872;28;20037;-58
2023/12/07 07:26:54;;;;;;;13.93;7.13;;;;;;;-2.61;100.00;97679.09;5036303;28;20045;-61
2023/12/07 07:29:21;;;;;;;15.50;8.32;;;;;;;-2.59;100.00;97676.28;5028531;28;20056;-61
2023/12/07 07:31:47;;;;;;;14.75;7.47;;;;;;;-2.60;100.00;97683.38;5044359;28;20044;-60
2023/12/07 07:34:14;;;;;;;13.80;8.05;;;;;;;-2.51;100.00;97679.78;5034148;28;20068;-61
2023/12/07 07:36:41;;;;;;;14.25;7.97;;;;;;;-2.39;100.00;97677.66;5029253;28;20126;-61
2023/12/07 07:39:08;;;;;;;14.85;8.73;;;;;;;-2.63;100.00;97675.75;5031504;28;20065;-61
2023/12/07 07:41:36;;;;;;;12.57;6.93;;;;;;;-2.68;100.00;97688.66;5035768;28;20137;-61
2023/12/07 07:44:02;;;;;;;15.27;7.85;;;;;;;-2.69;100.00;97687.00;5030687;28;20065;-61
2023/12/07 07:46:30;;;;;;;16.27;8.43;;;;;;;-2.66;100.00;97684.84;5036081;28;20087;-61
2023/12/07 07:48:57;;;;;;;14.90;7.10;;;;;;;-2.58;100.00;97692.00;5036432;28;20072;-60
2023/12/07 07:51:24;;;;;;;15.73;7.63;;;;;;;-2.56;100.00;97697.16;5043468;28;20075;-61
2023/12/07 07:53:50;;;;;;;13.23;7.70;;;;;;;-2.49;100.00;97693.72;5033712;28;20114;-61
2023/12/07 07:56:17;;;;;;;13.95;7.63;;;;;;;-2.36;100.00;97695.09;5038003;28;20128;-60
2023/12/07 07:58:43;;;;;;;13.80;8.15;;;;;;;-2.38;100.00;97694.41;5038602;28;20048;-61
2023/12/07 08:01:10;;;;;;;14.73;7.93;;;;;;;-2.37;100.00;97702.19;5044311;28;20045;-60
2023/12/07 08:03:40;;;;;;;16.40;9.27;;;;;;;-2.31;100.00;97699.88;5033643;28;20527;-61
2023/12/07 08:06:08;;;;;;;15.75;9.10;;;;;;;-2.16;100.00;97703.59;5042480;28;20134;-61
2023/12/07 08:08:34;;;;;;;22.38;11.13;;;;;;;-2.11;100.00;97703.94;5027974;28;20691;-61
2023/12/07 08:11:01;;;;;;;19.73;10.65;;;;;;;-2.07;100.00;97693.81;5038577;28;20053;-61
2023/12/07 08:13:28;;;;;;;17.63;9.52;;;;;;;-2.12;100.00;97693.47;5043686;28;20045;-61
2023/12/07 08:15:54;;;;;;;14.40;8.50;;;;;;;-2.10;100.00;97696.81;5032709;28;20046;-61
2023/12/07 08:18:24;;;;;;;14.98;9.40;;;;;;;-2.07;100.00;97695.66;5042518;28;20049;-61
2023/12/07 08:20:51;;;;;;;15.02;9.05;;;;;;;-2.15;100.00;97699.94;5039021;28;20140;-60
2023/12/07 08:23:18;;;;;;;14.07;7.97;;;;;;;-2.18;100.00;97689.63;5038555;28;20052;-61
2023/12/07 08:25:44;;;;;;;15.20;8.48;;;;;;;-2.28;100.00;97696.91;5037825;28;20773;-56
2023/12/07 08:28:11;;;;;;;13.98;7.70;;;;;;;-2.20;100.00;97706.72;5035548;28;20123;-58
2023/12/07 08:30:37;;;;;;;16.85;8.45;;;;;;;-2.07;100.00;97706.25;5047532;28;20116;-61
2023/12/07 08:33:04;;;;;;;15.95;8.35;;;;;;;-1.94;100.00;97711.09;5042341;28;20059;-60
2023/12/07 08:35:31;;;;;;;15.38;8.82;;;;;;;-1.95;100.00;97704.97;5043219;28;20078;-59
2023/12/07 08:37:57;;;;;;;17.15;8.93;;;;;;;-2.00;100.00;97692.16;5037786;28;20042;-60
2023/12/07 08:40:24;;;;;;;15.00;8.38;;;;;;;-2.00;100.00;97684.22;5032442;28;20055;-60
2023/12/07 08:42:50;;;;;;;18.38;8.77;;;;;;;-1.83;100.00;97679.72;5042761;28;20045;-61
2023/12/07 08:45:18;;;;;;;13.55;7.60;;;;;;;-1.65;100.00;97678.78;5044184;28;20505;-60
2023/12/07 08:47:45;;;;;;;15.13;8.02;;;;;;;-1.50;100.00;97664.81;5045495;28;20107;-62
2023/12/07 08:50:11;;;;;;;14.48;7.22;;;;;;;-1.38;100.00;97675.91;5043759;28;20581;-59
2023/12/07 08:52:38;;;;;;;12.43;7.50;;;;;;;-1.30;100.00;97670.59;5042444;28;20047;-61
2023/12/07 08:55:15;;;;;;;11.65;7.55;;;;;;;-1.25;100.00;97672.75;5043044;28;20151;-61
2023/12/07 08:57:42;;;;;;;14.05;7.57;;;;;;;-1.31;100.00;97668.94;5037859;28;20103;-60
2023/12/07 09:00:09;;;;;;;12.57;7.78;;;;;;;-1.23;100.00;97668.94;5045470;28;20041;-61
2023/12/07 09:02:36;;;;;;;11.48;7.03;;;;;;;-1.16;100.00;97663.75;5038704;28;20063;-60
2023/12/07 09:05:13;;;;;;;16.20;8.18;;;;;;;-1.10;100.00;97663.06;5044923;28;20128;-60
2023/12/07 09:07:40;;;;;;;12.60;7.80;;;;;;;-1.04;100.00;97661.56;5039302;28;20047;-60
2023/12/07 09:10:08;;;;;;;10.85;7.25;;;;;;;-1.05;100.00;97660.75;5041396;28;20055;-60
2023/12/07 09:12:35;;;;;;;12.30;7.20;;;;;;;-0.90;100.00;97659.19;5038982;28;20055;-59
2023/12/07 09:15:09;;;;;;;13.50;6.97;;;;;;;-0.76;100.00;97655.84;5043016;28;20068;-60
2023/12/07 09:17:38;;;;;;;12.20;6.82;;;;;;;-0.67;100.00;97649.47;5045904;28;20090;-56
2023/12/07 09:20:07;;;;;;;17.85;8.00;;;;;;;-0.56;100.00;97652.75;5042626;28;20420;-60
2023/12/07 09:22:34;;;;;;;11.60;6.22;;;;;;;-0.40;100.00;97651.84;5041043;28;20048;-61
2023/12/07 09:25:04;;;;;;;11.05;6.28;;;;;;;-0.30;100.00;97652.47;5037485;28;20073;-60
2023/12/07 09:27:33;;;;;;;12.95;6.72;;;;;;;-0.26;100.00;97644.94;5038672;28;20512;-61
2023/12/07 09:29:59;;;;;;;11.73;6.38;;;;;;;-0.17;100.00;97641.25;5032400;28;20060;-48
2023/12/07 09:32:27;;;;;;;12.02;6.47;;;;;;;-0.16;100.00;97650.03;5039717;28;20520;-47
2023/12/07 09:35:18;;;;;;;10.30;6.65;;;;;;;-0.01;100.00;97645.63;5046547;28;20419;-49
2023/12/07 09:37:46;;;;;;;11.45;6.40;;;;;;;0.13;100.00;97645.84;5032022;28;20099;-51
2023/12/07 09:40:19;;;;;;;11.60;5.45;;;;;;;0.22;100.00;97646.63;5040593;28;20125;-49
2023/12/07 09:42:49;;;;;;;11.38;5.80;;;;;;;0.33;100.00;97650.72;5032699;28;20069;-52
2023/12/07 09:45:19;;;;;;;10.52;5.57;;;;;;;0.36;100.00;97639.69;5044732;28;20045;-48
2023/12/07 09:47:49;;;;;;;8.30;5.07;;;;;;;0.49;100.00;97637.25;5035300;28;20065;-56
2023/12/07 09:50:23;;;;;;;10.20;5.88;;;;;;;0.56;100.00;97636.50;5041466;28;20550;-61
2023/12/07 09:52:51;;;;;;;9.48;5.07;;;;;;;0.60;100.00;97643.13;5030285;28;20048;-61
2023/12/07 09:55:33;;;;;;;10.98;6.10;;;;;;;0.69;100.00;97641.22;5035741;28;20036;-59
2023/12/07 09:58:00;;;;;;;11.18;5.47;;;;;;;0.72;100.00;97638.19;5042881;28;20049;-56
2023/12/07 10:00:27;;;;;;;10.30;4.97;;;;;;;0.80;100.00;97640.78;5041490;28;20165;-61
2023/12/07 10:02:54;;;;;;;9.88;4.60;;;;;;;0.84;100.00;97636.72;5033404;28;20073;-60
2023/12/07 10:05:21;;;;;;;9.20;4.97;;;;;;;0.93;100.00;97628.66;5044964;28;20587;-61
2023/12/07 10:07:49;;;;;;;7.97;4.95;;;;;;;1.03;100.00;97613.19;5035867;28;20044;-58
2023/12/07 10:10:17;;;;;;;9.63;5.05;;;;;;;1.09;100.00;97604.47;5041680;28;20080;-59
2023/12/07 10:12:55;;;;;;;8.25;4.47;;;;;;;1.13;100.00;97603.09;5035891;28;20222;-61
2023/12/07 10:15:23;;;;;;;9.48;4.60;;;;;;;1.22;100.00;97613.66;5040031;28;20076;-61
2023/12/07 10:17:55;;;;;;;9.98;4.85;;;;;;;1.35;100.00;97607.63;5040218;28;20618;-61
2023/12/07 10:20:25;;;;;;;10.13;5.15;;;;;;;1.46;100.00;97595.66;5037237;28;20123;-61
2023/12/07 10:23:09;;;;;;;8.85;5.20;;;;;;;1.52;100.00;97598.41;5039241;28;20045;-61
2023/12/07 10:25:38;;;;;;;7.90;3.90;;;;;;;1.55;100.00;97602.56;5032935;28;20136;-61
2023/12/07 10:28:08;;;;;;;8.00;4.20;;;;;;;1.60;100.00;97594.81;5034927;28;20045;-60
2023/12/07 10:30:36;;;;;;;9.45;3.85;;;;;;;1.65;100.00;97589.72;5037439;28;20037;-61
2023/12/07 10:33:06;;;;;;;7.43;3.90;;;;;;;1.70;100.00;97583.81;5037225;28;20095;-61
2023/12/07 10:35:38;;;;;;;6.35;4.40;;;;;;;1.69;100.00;97592.81;5038613;28;20037;-61
2023/12/07 10:38:04;;;;;;;8.68;4.47;;;;;;;1.74;100.00;97598.44;5032641;28;20571;-61
2023/12/07 10:40:31;;;;;;;8.23;4.28;;;;;;;1.79;100.00;97600.53;5032469;28;20124;-60
2023/12/07 10:43:00;;;;;;;8.00;4.55;;;;;;;1.84;100.00;97594.63;5038386;28;20048;-61
2023/12/07 10:45:30;;;;;;;9.95;5.38;;;;;;;1.88;100.00;97595.91;5030009;28;20079;-61
2023/12/07 10:48:06;;;;;;;8.30;4.85;;;;;;;1.93;100.00;97594.31;5033288;28;20124;-62
2023/12/07 10:50:41;;;;;;;9.20;4.70;;;;;;;1.99;100.00;97586.56;5031646;28;20116;-61
2023/12/07 10:53:12;;;;;;;7.72;4.43;;;;;;;2.05;100.00;97581.28;5033582;28;20129;-61
2023/12/07 10:56:00;;;;;;;7.68;4.57;;;;;;;2.14;100.00;97578.47;5029687;28;20065;-62
2023/12/07 10:58:27;;;;;;;11.32;4.72;;;;;;;2.15;100.00;97578.28;5033755;28;20047;-61
2023/12/07 11:00:57;;;;;;;8.38;4.35;;;;;;;2.21;100.00;97569.50;5032417;28;20429;-62
2023/12/07 11:03:25;;;;;;;7.97;4.60;;;;;;;2.25;100.00;97553.88;5026955;28;20056;-57
2023/12/07 11:05:52;;;;;;;8.00;4.78;;;;;;;2.22;100.00;97554.28;5031907;28;20060;-56
2023/12/07 11:08:37;;;;;;;8.85;5.13;;;;;;;2.29;100.00;97549.00;5036153;28;20052;-55
2023/12/07 11:11:10;;;;;;;7.55;4.43;;;;;;;2.31;100.00;97536.25;5036821;28;20563;-61
2023/12/07 11:13:37;;;;;;;10.07;4.68;;;;;;;2.37;100.00;97538.16;5037888;28;20043;-60
2023/12/07 11:16:04;;;;;;;9.00;4.68;;;;;;;2.43;100.00;97532.03;5036086;28;20131;-61
2023/12/07 11:18:31;;;;;;;7.30;3.92;;;;;;;2.55;100.00;97529.63;5042117;28;20458;-58
2023/12/07 11:20:59;;;;;;;8.68;4.03;;;;;;;2.55;100.00;97531.50;5035674;28;20515;-62
2023/12/07 11:23:29;;;;;;;8.90;3.90;;;;;;;2.63;97.65;97528.66;5035144;28;20504;-61
2023/12/07 11:25:56;;;;;;;8.07;4.13;;;;;;;2.59;94.96;97517.53;5031850;28;20068;-57